Terminal Aerodrome Forecast
Issued by NWS

Home | Current Version | Previous Version | Text Only | Print | Product List | Glossary Off
Versions: 1 2 3 4 5 6 7 8 9 10 11 12 13 14 15 16 17 18 19 20

043
FTUS43 KJKL 241545 AAC
TAFSME
TAF AMD
KSME 241545Z 2416/2512 VRB05KT P6SM VCTS SCT004 OVC025CB
     FM241700 VRB03KT 3SM SHRA BR VCTS SCT010 OVC025CB
     FM242300 26008KT P6SM VCSH OVC025=

USA.gov is the U.S. government's official web portal to all federal, state and local government web resources and services.